createdAt,value
2022-10-04T00:15:11.089Z,42
2022-10-04T00:30:35.039Z,42
2022-10-04T01:17:13.256Z,42.5
2022-10-04T01:32:37.240Z,42.5
2022-10-04T02:03:38.322Z,43
2022-10-04T02:50:10.015Z,43
2022-10-04T03:05:53.776Z,43
2022-10-04T03:36:48.344Z,43.5
2022-10-04T04:00:10.774Z,43.5
2022-10-04T04:30:58.754Z,43.5
2022-10-04T05:01:59.948Z,43.5
2022-10-04T05:40:46.481Z,44
2022-10-04T05:56:17.030Z,44
2022-10-04T06:27:24.750Z,44
2022-10-04T06:58:19.273Z,43.5
2022-10-04T07:21:41.659Z,43
2022-10-04T07:52:36.166Z,45
2022-10-04T08:08:06.875Z,44.5
2022-10-04T08:46:53.453Z,44
2022-10-04T09:10:09.311Z,44.5
2022-10-04T09:49:09.203Z,45
2022-10-04T10:04:33.342Z,45.5
2022-10-04T10:35:41.412Z,46
2022-10-04T11:06:36.238Z,46
2022-10-04T11:29:58.876Z,46
2022-10-04T11:53:01.715Z,45
2022-10-04T12:32:01.491Z,44
2022-10-04T12:47:18.900Z,44
2022-10-04T13:18:33.270Z,44
2022-10-04T13:57:06.465Z,43.5
2022-10-04T14:28:14.172Z,43
2022-10-04T14:59:08.577Z,42.5
2022-10-04T15:22:30.858Z,41.5
2022-10-04T15:53:38.275Z,41
2022-10-04T16:24:26.017Z,42
2022-10-04T16:39:56.478Z,42
2022-10-04T17:11:04.154Z,43
2022-10-04T17:26:41.361Z,43
2022-10-04T17:57:35.822Z,43
2022-10-04T18:28:43.498Z,43.5
2022-10-04T18:59:31.326Z,43.5
2022-10-04T19:15:08.470Z,43
2022-10-04T20:01:33.333Z,43
2022-10-04T20:24:49.052Z,43
2022-10-04T20:40:32.702Z,43
2022-10-04T21:11:20.467Z,43
2022-10-04T21:42:21.390Z,43
2022-10-04T22:05:50.362Z,43
2022-10-04T22:44:23.373Z,43
2022-10-04T23:00:00.450Z,43
2022-10-04T23:23:22.742Z,43
